Time;durP1;ratioP1;P1;durP2;ratioP2;P2;SDS_P1;SDS_P2;PMS_P1;PMS_P2;Temp;Humidity;BMP_temperature;BMP_pressure;BME280_temperature;BME280_humidity;BME280_pressure;Samples;Min_cycle;Max_cycle;Signal;HPM_P1;HPM_P2
2024/02/15 00:04:58;;;;;;;1.38;1.27;;;;;;;8.48;100.00;98967.09;15339454;19;20029;-80
2024/02/15 00:10:24;;;;;;;2.45;1.20;;;;;;;8.49;100.00;98960.75;15311270;19;20011;-82
2024/02/15 00:15:52;;;;;;;1.38;1.20;;;;;;;8.51;100.00;98965.97;15302923;19;20422;-81
2024/02/15 00:21:17;;;;;;;1.83;1.10;;;;;;;8.52;100.00;98965.84;15309876;19;20019;-81
2024/02/15 00:26:42;;;;;;;1.45;1.10;;;;;;;8.57;100.00;98974.34;15059619;19;5000902;-80
2024/02/15 00:32:10;;;;;;;0.80;0.80;;;;;;;8.60;100.00;98976.75;15312405;19;20026;-81
2024/02/15 00:37:34;;;;;;;1.33;0.80;;;;;;;8.62;100.00;98980.16;15305799;19;20040;-82
2024/02/15 00:42:59;;;;;;;0.88;0.88;;;;;;;8.66;100.00;98986.09;15315681;19;20007;-80
2024/02/15 00:48:33;;;;;;;1.25;0.70;;;;;;;8.69;100.00;98979.59;15301390;19;20372;-81
2024/02/15 00:53:59;;;;;;;0.65;0.60;;;;;;;8.73;100.00;98981.03;15301932;19;20366;-81
2024/02/15 00:59:23;;;;;;;0.85;0.60;;;;;;;8.76;100.00;98980.78;15301785;19;20489;-81
2024/02/15 01:04:58;;;;;;;0.77;0.52;;;;;;;8.79;100.00;98969.75;15301666;19;20019;-83
2024/02/15 01:10:23;;;;;;;0.50;0.50;;;;;;;8.83;100.00;98981.06;15300774;19;20976;-81
2024/02/15 01:15:47;;;;;;;0.80;0.60;;;;;;;8.83;100.00;98973.88;15297995;19;20031;-82
2024/02/15 01:21:15;;;;;;;0.40;0.40;;;;;;;8.86;100.00;98976.28;15306966;19;20018;-82
2024/02/15 01:26:39;;;;;;;0.57;0.57;;;;;;;8.86;100.00;98970.91;15301954;19;20038;-83
2024/02/15 01:32:05;;;;;;;0.50;0.50;;;;;;;8.87;100.00;98969.06;15305384;19;20406;-85
2024/02/15 01:37:32;;;;;;;0.88;0.70;;;;;;;8.88;100.00;98962.69;15307900;19;20022;-82
2024/02/15 01:42:57;;;;;;;0.60;0.60;;;;;;;8.87;100.00;98964.56;15048986;19;5000796;-82
2024/02/15 01:48:25;;;;;;;0.70;0.65;;;;;;;8.88;100.00;98962.69;15306045;19;20386;-81
2024/02/15 01:53:53;;;;;;;0.68;0.40;;;;;;;8.87;100.00;98961.00;15304883;19;20410;-81
2024/02/15 01:59:19;;;;;;;1.20;0.60;;;;;;;8.90;100.00;98969.63;15300926;19;20028;-81
2024/02/15 02:04:51;;;;;;;0.50;0.50;;;;;;;8.91;100.00;98967.81;15305798;19;20014;-80
2024/02/15 02:10:18;;;;;;;;;;;;;;;8.88;100.00;98962.69;15306207;19;20027;-80
2024/02/15 02:15:44;;;;;;;0.80;0.55;;;;;;;8.92;100.00;98970.34;15300399;19;20339;-81
2024/02/15 02:21:09;;;;;;;0.60;0.60;;;;;;;8.94;100.00;98964.81;15305632;19;20018;-80
2024/02/15 02:26:36;;;;;;;0.60;0.60;;;;;;;8.96;100.00;98953.97;15306294;19;20014;-81
2024/02/15 02:32:01;;;;;;;0.50;0.50;;;;;;;8.97;100.00;98961.03;15294982;19;20380;-81
2024/02/15 02:37:25;;;;;;;1.02;0.40;;;;;;;8.97;100.00;98958.34;15303976;19;20502;-80
2024/02/15 02:42:56;;;;;;;0.35;0.30;;;;;;;9.02;100.00;98969.53;15304048;19;20369;-80
2024/02/15 02:48:21;;;;;;;0.50;0.40;;;;;;;9.02;100.00;98964.16;15305724;19;20019;-81
2024/02/15 02:53:46;;;;;;;0.40;0.40;;;;;;;9.04;100.00;98967.56;15300494;19;20896;-82
2024/02/15 02:59:13;;;;;;;0.38;0.38;;;;;;;9.06;100.00;98965.56;15291925;19;20014;-81
2024/02/15 03:04:44;;;;;;;0.40;0.40;;;;;;;9.08;100.00;98966.28;15295445;19;20022;-80
2024/02/15 03:10:13;;;;;;;0.60;0.40;;;;;;;9.08;100.00;98964.44;15296224;19;20027;-81
2024/02/15 03:15:41;;;;;;;0.43;0.43;;;;;;;9.12;100.00;98970.38;15306557;19;20287;-81
2024/02/15 03:21:06;;;;;;;0.50;0.40;;;;;;;9.12;100.00;98961.50;15299392;19;20014;-82
2024/02/15 03:26:40;;;;;;;0.40;0.40;;;;;;;9.12;100.00;98956.13;15347685;19;20041;-82
2024/02/15 03:32:09;;;;;;;0.80;0.60;;;;;;;9.09;100.00;98963.47;15304497;19;20026;-81
2024/02/15 03:37:36;;;;;;;0.60;0.60;;;;;;;9.06;100.00;98963.72;15287780;19;20416;-81
2024/02/15 03:43:06;;;;;;;0.50;0.50;;;;;;;9.07;100.00;98956.53;15321552;19;20018;-83
2024/02/15 03:48:33;;;;;;;0.40;0.40;;;;;;;9.06;100.00;98974.47;15326222;19;20018;-82
2024/02/15 03:53:58;;;;;;;0.30;0.30;;;;;;;9.06;100.00;98973.63;15327848;19;20550;-82
2024/02/15 03:59:26;;;;;;;0.75;0.40;;;;;;;9.07;100.00;98969.97;15330068;19;20033;-83
2024/02/15 04:05:01;;;;;;;0.50;0.50;;;;;;;9.05;100.00;98978.19;15330010;19;20029;-82
2024/02/15 04:10:26;;;;;;;0.40;0.40;;;;;;;9.05;100.00;98980.88;15318345;19;20485;-83
2024/02/15 04:15:52;;;;;;;0.82;0.45;;;;;;;9.07;100.00;98980.72;15312737;19;20506;-82
2024/02/15 04:21:21;;;;;;;0.60;0.60;;;;;;;9.07;100.00;98988.78;15312127;19;20022;-82
2024/02/15 04:26:47;;;;;;;0.68;0.57;;;;;;;9.08;100.00;98979.75;15307735;19;20014;-83
2024/02/15 04:32:13;;;;;;;0.73;0.57;;;;;;;9.06;100.00;98965.56;15309476;19;20238;-82
2024/02/15 04:37:40;;;;;;;0.73;0.40;;;;;;;9.05;100.00;98988.94;15298560;19;20023;-82
2024/02/15 04:43:06;;;;;;;0.55;0.52;;;;;;;9.04;100.00;98991.75;15307198;19;20014;-82
2024/02/15 04:48:31;;;;;;;1.80;0.77;;;;;;;9.01;100.00;98992.88;15306813;19;20011;-81
2024/02/15 04:54:01;;;;;;;1.52;0.70;;;;;;;9.00;100.00;98990.31;15308388;19;20035;-82
2024/02/15 04:59:28;;;;;;;1.95;0.70;;;;;;;8.98;100.00;98985.06;15309873;19;20018;-84
2024/02/15 05:04:59;;;;;;;1.27;0.73;;;;;;;8.95;100.00;98985.34;15306051;19;20017;-79
2024/02/15 05:10:27;;;;;;;1.43;0.80;;;;;;;8.90;100.00;98977.69;15299326;19;20017;-78
2024/02/15 05:15:52;;;;;;;1.02;0.70;;;;;;;8.81;100.00;98972.31;15298587;19;20010;-79
2024/02/15 05:21:17;;;;;;;0.82;0.70;;;;;;;8.77;100.00;98982.44;15300633;19;20018;-82
2024/02/15 05:26:46;;;;;;;4.75;2.97;;;;;;;8.73;100.00;98979.19;15308794;19;20082;-84
2024/02/15 05:32:14;;;;;;;2.47;1.88;;;;;;;8.74;100.00;98990.81;15303745;19;20357;-88
2024/02/15 05:37:38;;;;;;;1.15;0.93;;;;;;;8.79;100.00;98993.91;15302805;19;20010;-86
2024/02/15 05:43:11;;;;;;;0.93;0.82;;;;;;;8.88;100.00;99005.69;15309260;19;20010;-84
2024/02/15 05:48:37;;;;;;;1.17;1.00;;;;;;;8.92;100.00;98991.84;15312833;19;20035;-84
2024/02/15 05:54:02;;;;;;;1.80;1.10;;;;;;;8.94;100.00;98987.19;15309581;19;20014;-84
2024/02/15 05:59:29;;;;;;;0.93;0.82;;;;;;;8.97;100.00;98987.91;15302118;19;20521;-83
2024/02/15 06:05:04;;;;;;;1.10;0.90;;;;;;;9.01;100.00;98997.38;15296858;19;20050;-84
2024/02/15 06:10:29;;;;;;;1.90;0.90;;;;;;;9.02;100.00;98997.25;15301768;19;20100;-83
2024/02/15 06:15:56;;;;;;;1.73;0.98;;;;;;;9.05;100.00;99001.50;15305381;19;20019;-83
2024/02/15 06:21:21;;;;;;;1.30;1.13;;;;;;;9.09;100.00;99013.69;15306446;19;20376;-83
2024/02/15 06:26:49;;;;;;;0.95;0.95;;;;;;;9.14;100.00;99015.97;15307543;19;20024;-84
2024/02/15 06:43:33;;;;;;;1.20;1.10;;;;;;;9.32;100.00;99022.38;15300269;19;20462;-84
2024/02/15 06:49:04;;;;;;;1.35;1.00;;;;;;;9.34;100.00;99027.63;15306467;19;20022;-84
2024/02/15 06:54:29;;;;;;;1.93;1.07;;;;;;;9.36;100.00;99037.25;15335851;19;20083;-85
2024/02/15 06:59:56;;;;;;;1.77;1.08;;;;;;;9.37;100.00;99032.69;15306152;19;20007;-83
2024/02/15 07:05:30;;;;;;;0.80;0.80;;;;;;;9.37;100.00;99032.69;15288596;19;20041;-83
2024/02/15 07:10:58;;;;;;;1.30;0.90;;;;;;;9.37;100.00;99032.69;15292411;19;20022;-88
2024/02/15 07:16:23;;;;;;;2.42;0.95;;;;;;;9.41;100.00;99039.50;15304919;19;20021;-83
2024/02/15 07:21:51;;;;;;;0.80;0.80;;;;;;;9.48;100.00;99037.97;15293280;19;20054;-83
2024/02/15 07:27:16;;;;;;;1.30;0.90;;;;;;;9.59;100.00;99041.50;15310223;19;20014;-81
2024/02/15 07:32:41;;;;;;;1.80;1.08;;;;;;;9.68;100.00;99046.06;15314281;19;20023;-81
2024/02/15 07:38:10;;;;;;;1.00;0.90;;;;;;;9.77;100.00;99038.97;15334196;19;20063;-81
2024/02/15 07:43:36;;;;;;;1.38;1.02;;;;;;;9.80;100.00;99044.94;15329595;19;20025;-82
2024/02/15 07:49:01;;;;;;;1.02;1.00;;;;;;;9.84;100.00;99046.34;15330439;19;20469;-82
2024/02/15 07:54:33;;;;;;;1.88;1.20;;;;;;;9.87;100.00;99050.63;15327332;19;20027;-84
2024/02/15 07:59:57;;;;;;;1.67;1.20;;;;;;;9.90;100.00;99050.31;15363250;19;20350;-83
2024/02/15 08:05:22;;;;;;;2.30;1.20;;;;;;;9.96;100.00;99043.53;15325819;19;20042;-83
2024/02/15 08:10:51;;;;;;;1.85;1.02;;;;;;;9.98;100.00;99045.09;15336582;19;20363;-83
2024/02/15 08:16:17;;;;;;;0.80;0.80;;;;;;;10.06;100.00;99040.84;15323211;19;20362;-78
2024/02/15 08:21:46;;;;;;;1.83;0.98;;;;;;;10.16;100.00;99047.91;15322946;19;20014;-78
2024/02/15 08:27:16;;;;;;;1.70;0.93;;;;;;;10.26;100.00;99045.19;15315780;19;20014;-81
2024/02/15 08:32:47;;;;;;;2.35;1.10;;;;;;;10.39;100.00;99044.06;15309863;19;20022;-85
2024/02/15 08:38:13;;;;;;;1.23;1.00;;;;;;;10.48;100.00;99045.91;15305499;19;20014;-81
2024/02/15 08:43:41;;;;;;;1.27;1.00;;;;;;;10.61;100.00;99037.50;15303803;19;20010;-81
2024/02/15 08:49:07;;;;;;;1.48;1.00;;;;;;;10.65;100.00;99028.13;15304426;19;20019;-82
2024/02/15 08:54:32;;;;;;;3.33;1.20;;;;;;;10.67;100.00;99026.13;15303899;19;20011;-82
2024/02/15 09:00:00;;;;;;;2.13;1.30;;;;;;;10.71;100.00;99024.84;15302241;19;20017;-83
2024/02/15 09:05:31;;;;;;;2.20;1.30;;;;;;;10.78;100.00;99015.16;15299306;19;20015;-84
2024/02/15 09:10:58;;;;;;;1.70;1.20;;;;;;;10.89;100.00;99016.84;15305937;19;20015;-84
2024/02/15 09:16:26;;;;;;;1.45;1.05;;;;;;;10.94;100.00;99024.47;15298275;19;20279;-84
2024/02/15 09:21:50;;;;;;;2.08;1.00;;;;;;;10.95;100.00;99023.47;15297001;19;20015;-84
2024/02/15 09:27:14;;;;;;;1.23;0.90;;;;;;;10.94;100.00;99022.63;15298959;19;20029;-84
2024/02/15 09:32:44;;;;;;;1.58;1.17;;;;;;;10.95;100.00;99012.69;15305285;19;20080;-83
2024/02/15 09:38:09;;;;;;;1.30;1.20;;;;;;;10.95;100.00;99018.09;15297063;19;20019;-83
2024/02/15 09:43:34;;;;;;;3.88;0.90;;;;;;;11.02;100.00;99008.41;15298148;19;20014;-83
2024/02/15 09:49:07;;;;;;;2.88;1.30;;;;;;;11.12;100.00;99010.19;15299444;19;20026;-83
2024/02/15 09:54:36;;;;;;;2.90;1.10;;;;;;;11.23;100.00;99012.69;15295198;19;20010;-81
2024/02/15 10:00:03;;;;;;;2.03;1.20;;;;;;;11.29;100.00;98998.59;15298557;19;20379;-83
2024/02/15 10:05:39;;;;;;;1.23;1.10;;;;;;;11.37;100.00;98995.97;15295384;19;20010;-82
2024/02/15 10:11:11;;;;;;;1.25;0.95;;;;;;;11.46;100.00;98993.38;15301415;19;20078;-82
2024/02/15 10:16:37;;;;;;;1.42;1.02;;;;;;;11.47;100.00;98989.66;15306635;19;20082;-83
2024/02/15 10:22:08;;;;;;;1.20;0.90;;;;;;;11.51;100.00;98997.31;15307076;19;20488;-82
2024/02/15 10:27:38;;;;;;;1.63;0.95;;;;;;;11.64;100.00;98980.75;15361685;19;20017;-84
2024/02/15 10:33:07;;;;;;;2.90;1.10;;;;;;;11.87;100.00;98974.84;15037673;19;5001551;-82
2024/02/15 10:38:35;;;;;;;1.80;0.90;;;;;;;12.02;100.00;98975.16;15295822;19;20046;-82
2024/02/15 10:44:04;;;;;;;1.08;0.93;;;;;;;12.14;100.00;98976.63;15302581;19;20070;-83
2024/02/15 10:49:30;;;;;;;1.10;0.90;;;;;;;12.25;100.00;98980.94;15295677;19;20006;-82
2024/02/15 10:55:05;;;;;;;2.45;0.88;;;;;;;12.36;100.00;98962.75;15298633;19;20473;-83
2024/02/15 11:00:39;;;;;;;0.77;0.70;;;;;;;12.40;100.00;98958.72;15293876;19;20019;-83
2024/02/15 11:06:15;;;;;;;0.80;0.60;;;;;;;12.48;100.00;98956.06;15302816;19;20019;-83
2024/02/15 11:11:40;;;;;;;0.70;0.70;;;;;;;12.53;100.00;98947.47;15328901;19;20025;-83
2024/02/15 11:17:09;;;;;;;0.50;0.50;;;;;;;12.53;100.00;98939.38;15304734;19;20057;-81
2024/02/15 11:22:35;;;;;;;1.08;0.40;;;;;;;12.48;100.00;98920.94;15303143;19;20375;-82
2024/02/15 11:28:04;;;;;;;0.82;0.60;;;;;;;12.50;100.00;98921.63;15301160;19;20042;-83
2024/02/15 11:33:34;;;;;;;0.38;0.38;;;;;;;12.49;100.00;98901.00;15305585;19;20505;-83
2024/02/15 11:39:02;;;;;;;0.68;0.60;;;;;;;12.51;100.00;98896.28;15299599;19;20097;-83
2024/02/15 11:44:27;;;;;;;1.73;0.50;;;;;;;12.66;100.00;98891.13;15308614;19;20014;-86
2024/02/15 11:49:55;;;;;;;0.70;0.70;;;;;;;12.78;100.00;98891.66;15300070;19;20428;-82
2024/02/15 11:55:24;;;;;;;1.02;0.70;;;;;;;12.87;100.00;98868.19;15302374;19;20022;-83
2024/02/15 12:23:35;;;;;;;1.05;0.80;;;;;;;13.09;100.00;98836.97;15331706;19;20014;-81
2024/02/15 12:29:01;;;;;;;3.10;1.80;;;;;;;13.16;100.00;98840.69;15322730;19;20015;-80
2024/02/15 12:34:27;;;;;;;1.05;0.70;;;;;;;13.28;100.00;98840.34;15322180;19;20018;-80
2024/02/15 12:39:54;;;;;;;0.60;0.60;;;;;;;13.38;100.00;98832.91;15314279;19;20018;-80
2024/02/15 12:45:20;;;;;;;1.23;0.60;;;;;;;13.49;100.00;98810.94;15307664;19;20031;-81
2024/02/15 12:50:46;;;;;;;1.33;0.60;;;;;;;13.58;100.00;98803.66;15313692;19;20024;-80
2024/02/15 12:56:24;;;;;;;1.38;0.60;;;;;;;13.66;100.00;98786.56;15316091;19;20038;-81
2024/02/15 13:01:48;;;;;;;0.88;0.63;;;;;;;13.75;100.00;98782.81;15305198;19;20015;-80
2024/02/15 13:07:13;;;;;;;0.60;0.50;;;;;;;13.90;100.00;98771.28;15306883;19;20014;-80
2024/02/15 13:12:41;;;;;;;0.60;0.60;;;;;;;13.93;100.00;98776.34;15299183;19;20007;-79
2024/02/15 13:18:09;;;;;;;1.23;0.70;;;;;;;13.87;100.00;98758.94;15303808;19;20029;-79
2024/02/15 13:23:35;;;;;;;0.73;0.60;;;;;;;13.91;100.00;98762.97;15298836;19;20011;-80
2024/02/15 13:29:03;;;;;;;1.23;0.50;;;;;;;13.95;100.00;98747.22;15302779;19;20014;-79
2024/02/15 13:34:28;;;;;;;3.40;0.60;;;;;;;13.98;100.00;98741.44;15302739;19;20026;-79
2024/02/15 13:39:53;;;;;;;1.02;0.70;;;;;;;13.88;100.00;98728.09;15300836;19;20414;-81
2024/02/15 13:45:22;;;;;;;0.70;0.63;;;;;;;13.86;100.00;98722.03;15306679;19;20017;-79
2024/02/15 13:50:47;;;;;;;0.60;0.60;;;;;;;13.93;100.00;98723.00;15307820;19;20116;-80
2024/02/15 13:56:16;;;;;;;2.75;0.70;;;;;;;14.02;100.00;98718.41;15304452;19;20010;-80
2024/02/15 14:01:45;;;;;;;1.25;0.60;;;;;;;14.17;100.00;98700.38;15300385;19;20375;-80
2024/02/15 14:07:16;;;;;;;0.77;0.70;;;;;;;14.41;100.00;98690.41;15340665;19;20018;-80
2024/02/15 14:12:41;;;;;;;1.00;0.80;;;;;;;14.75;100.00;98672.94;15325653;19;20024;-80
2024/02/15 14:18:10;;;;;;;4.68;0.68;;;;;;;14.70;100.00;98664.47;15294990;19;20017;-80
2024/02/15 14:23:36;;;;;;;1.83;0.60;;;;;;;14.37;100.00;98659.28;15301706;19;20019;-80
2024/02/15 14:29:01;;;;;;;0.82;0.60;;;;;;;14.10;100.00;98652.50;15302113;19;20361;-79
2024/02/15 14:34:29;;;;;;;1.33;0.60;;;;;;;13.96;100.00;98640.56;15293682;19;20101;-79
2024/02/15 14:39:54;;;;;;;0.68;0.65;;;;;;;13.89;100.00;98650.41;15302904;19;20090;-80
2024/02/15 14:45:23;;;;;;;0.75;0.63;;;;;;;13.82;100.00;98644.88;15301479;19;20019;-79
2024/02/15 14:50:50;;;;;;;1.45;0.80;;;;;;;13.81;100.00;98648.59;15321671;19;20550;-79
2024/02/15 14:56:17;;;;;;;1.73;0.90;;;;;;;13.77;100.00;98650.81;15319547;19;20018;-81
2024/02/15 15:01:42;;;;;;;3.63;0.85;;;;;;;13.69;100.00;98650.84;15310031;19;20023;-80
2024/02/15 15:12:47;;;;;;;1.85;0.90;;;;;;;13.61;100.00;98649.03;15303700;19;20078;-79
2024/02/15 15:18:12;;;;;;;1.00;0.90;;;;;;;13.54;100.00;98638.06;15301243;19;20081;-79
2024/02/15 15:23:41;;;;;;;1.98;0.90;;;;;;;13.47;100.00;98642.47;15294153;19;20021;-79
2024/02/15 15:29:10;;;;;;;4.82;1.00;;;;;;;13.40;100.00;98639.63;15309208;19;20006;-80
2024/02/15 15:34:34;;;;;;;1.33;0.80;;;;;;;13.33;100.00;98641.28;15309926;19;20010;-79
2024/02/15 15:40:02;;;;;;;2.92;0.95;;;;;;;13.30;100.00;98640.81;15309883;19;20011;-79
2024/02/15 15:45:27;;;;;;;0.90;0.80;;;;;;;13.26;100.00;98648.44;15308791;19;20023;-81
2024/02/15 15:50:52;;;;;;;3.08;0.90;;;;;;;13.25;100.00;98644.88;15324780;19;20032;-80
2024/02/15 15:56:20;;;;;;;3.42;1.00;;;;;;;13.26;100.00;98641.16;15313346;19;20089;-79
2024/02/15 16:01:50;;;;;;;1.08;0.77;;;;;;;13.28;100.00;98632.00;15310749;19;20025;-80
2024/02/15 16:07:15;;;;;;;1.52;0.77;;;;;;;13.19;100.00;98626.63;15314502;19;20013;-78
2024/02/15 16:12:44;;;;;;;3.63;0.88;;;;;;;13.10;100.00;98627.69;15314706;19;20015;-82
2024/02/15 16:18:10;;;;;;;1.83;0.70;;;;;;;13.01;100.00;98631.38;15341185;19;20015;-78
2024/02/15 16:23:35;;;;;;;1.45;0.80;;;;;;;12.92;100.00;98630.59;15350269;19;20022;-81
2024/02/15 16:29:02;;;;;;;1.42;0.80;;;;;;;12.83;100.00;98618.94;15328459;19;20019;-82
2024/02/15 16:34:27;;;;;;;1.35;0.80;;;;;;;12.72;100.00;98605.75;15323591;19;20003;-80
2024/02/15 16:39:51;;;;;;;3.88;0.80;;;;;;;12.63;100.00;98608.47;15314696;19;20011;-82
2024/02/15 16:45:20;;;;;;;1.73;0.80;;;;;;;12.51;100.00;98588.22;15310742;19;20009;-81
2024/02/15 16:50:46;;;;;;;1.52;0.90;;;;;;;12.42;100.00;98594.59;15313713;19;20094;-80
2024/02/15 16:56:23;;;;;;;2.25;1.08;;;;;;;12.33;100.00;98593.78;15313775;19;20050;-83
2024/02/15 17:01:51;;;;;;;0.98;0.80;;;;;;;12.23;100.00;98603.91;15304294;19;20051;-79
2024/02/15 17:07:15;;;;;;;2.47;0.90;;;;;;;12.13;100.00;98614.88;15317116;19;20047;-81
2024/02/15 17:12:40;;;;;;;3.67;1.50;;;;;;;12.02;100.00;98627.69;15290920;19;20078;-80
2024/02/15 17:18:08;;;;;;;2.17;1.13;;;;;;;11.88;100.00;98630.97;15320170;19;20017;-81
2024/02/15 17:23:45;;;;;;;3.15;1.30;;;;;;;11.79;100.00;98638.19;15313308;19;20018;-80
2024/02/15 17:29:10;;;;;;;2.22;1.05;;;;;;;11.77;100.00;98633.97;15311843;19;20073;-84
2024/02/15 17:34:39;;;;;;;2.20;1.00;;;;;;;11.75;100.00;98627.91;15306734;19;20080;-83
2024/02/15 17:40:20;;;;;;;3.92;1.20;;;;;;;11.69;100.00;98627.56;15313458;19;20489;-84
2024/02/15 17:45:46;;;;;;;1.83;1.20;;;;;;;11.59;100.00;98634.91;15345456;19;20026;-83
2024/02/15 17:51:15;;;;;;;2.70;1.20;;;;;;;11.51;100.00;98626.81;15320987;19;20014;-82
2024/02/15 17:56:41;;;;;;;4.20;1.30;;;;;;;11.43;100.00;98624.91;15306471;19;20010;-83
2024/02/15 18:02:05;;;;;;;2.90;1.13;;;;;;;11.39;100.00;98643.28;15322120;19;20018;-81
2024/02/15 18:07:32;;;;;;;1.85;0.90;;;;;;;11.36;100.00;98634.66;15323154;19;20022;-81
2024/02/15 18:12:57;;;;;;;2.55;1.10;;;;;;;11.32;100.00;98636.84;15324321;19;20019;-81
2024/02/15 18:18:22;;;;;;;2.55;1.17;;;;;;;11.28;100.00;98634.63;15295188;19;20103;-74
2024/02/15 18:23:49;;;;;;;2.10;1.10;;;;;;;11.25;100.00;98641.16;15292193;19;20442;-73
2024/02/15 18:29:14;;;;;;;3.00;1.15;;;;;;;11.20;100.00;98648.91;15298294;19;20019;-74
2024/02/15 18:34:39;;;;;;;2.47;1.00;;;;;;;11.19;100.00;98641.81;15290672;19;20033;-74
2024/02/15 18:40:09;;;;;;;1.88;0.98;;;;;;;11.13;100.00;98637.06;15288882;19;20085;-74
2024/02/15 18:45:43;;;;;;;2.05;0.90;;;;;;;11.10;100.00;98628.31;15278888;19;20832;-74
2024/02/15 18:51:08;;;;;;;1.58;0.90;;;;;;;11.05;100.00;98630.63;15285512;19;20019;-73
2024/02/15 18:56:35;;;;;;;4.20;1.00;;;;;;;11.00;100.00;98616.75;15287668;19;20077;-74
2024/02/15 19:01:59;;;;;;;2.20;1.05;;;;;;;10.93;100.00;98607.63;15288896;19;20431;-73
2024/02/15 19:07:26;;;;;;;3.45;1.10;;;;;;;10.88;100.00;98615.34;15296222;19;20047;-73
2024/02/15 19:12:53;;;;;;;1.85;1.00;;;;;;;10.84;100.00;98600.50;15287619;19;20018;-74
2024/02/15 19:18:20;;;;;;;1.88;0.90;;;;;;;10.78;100.00;98596.59;15292278;19;20019;-76
2024/02/15 19:23:45;;;;;;;2.00;0.95;;;;;;;10.70;100.00;98588.47;15301982;19;20042;-77
2024/02/15 19:29:13;;;;;;;2.38;0.82;;;;;;;10.61;100.00;98592.94;15307438;19;20007;-76
2024/02/15 19:34:38;;;;;;;1.73;1.00;;;;;;;10.54;100.00;98592.72;15300062;19;20014;-76
2024/02/15 19:40:03;;;;;;;2.78;1.17;;;;;;;10.50;100.00;98582.41;15304651;19;20015;-76
2024/02/15 19:45:37;;;;;;;2.80;1.00;;;;;;;10.43;100.00;98572.25;15294039;19;20016;-77
2024/02/15 19:51:01;;;;;;;1.58;1.00;;;;;;;10.39;100.00;98581.66;15305400;19;20011;-75
2024/02/15 19:56:30;;;;;;;2.35;1.10;;;;;;;10.35;100.00;98574.03;15305063;19;20011;-77
2024/02/15 20:01:59;;;;;;;2.40;1.13;;;;;;;10.37;100.00;98572.88;15301254;19;20028;-77
2024/02/15 20:07:32;;;;;;;2.38;1.17;;;;;;;10.39;100.00;98570.03;15306220;19;20019;-77
2024/02/15 20:12:58;;;;;;;1.77;1.00;;;;;;;10.43;100.00;98560.66;15310259;19;20074;-77
2024/02/15 20:18:25;;;;;;;4.47;1.25;;;;;;;10.43;100.00;98549.88;15304508;19;20018;-77
2024/02/15 20:23:50;;;;;;;3.67;1.23;;;;;;;10.38;100.00;98547.66;15308140;19;20471;-77
2024/02/15 20:29:15;;;;;;;1.92;1.05;;;;;;;10.38;100.00;98557.56;15310028;19;20093;-76
2024/02/15 20:34:42;;;;;;;1.90;0.90;;;;;;;10.35;100.00;98547.94;15311461;19;20380;-78
2024/02/15 20:40:17;;;;;;;2.47;1.10;;;;;;;10.33;100.00;98549.94;15302795;19;20018;-76
2024/02/15 20:45:42;;;;;;;3.53;1.00;;;;;;;10.38;100.00;98546.78;15297159;19;20016;-77
2024/02/15 20:51:09;;;;;;;2.17;0.90;;;;;;;10.42;100.00;98549.00;15304206;19;20023;-76
2024/02/15 20:56:36;;;;;;;2.40;1.05;;;;;;;10.46;100.00;98538.78;15299809;19;20090;-76
2024/02/15 21:02:02;;;;;;;2.75;1.13;;;;;;;10.44;100.00;98536.25;15290581;19;20025;-75
2024/02/15 21:07:36;;;;;;;2.25;1.10;;;;;;;10.39;100.00;98526.94;15291226;19;20486;-73
2024/02/15 21:13:02;;;;;;;1.48;0.93;;;;;;;10.38;100.00;98527.94;15289672;19;20018;-75
2024/02/15 21:18:27;;;;;;;2.92;1.00;;;;;;;10.37;100.00;98527.09;15291752;19;20039;-72
2024/02/15 21:23:55;;;;;;;1.83;0.82;;;;;;;10.36;100.00;98519.13;15300078;19;20011;-74
2024/02/15 21:29:20;;;;;;;1.88;1.00;;;;;;;10.35;100.00;98521.00;15297985;19;20011;-74
2024/02/15 21:34:45;;;;;;;2.90;1.23;;;;;;;10.34;100.00;98513.91;15290859;19;20043;-73
2024/02/15 21:40:15;;;;;;;2.40;1.05;;;;;;;10.36;100.00;98517.31;15294615;19;20018;-73
2024/02/15 21:45:40;;;;;;;1.98;1.10;;;;;;;10.38;100.00;98514.47;15291191;19;20031;-73
2024/02/15 21:51:04;;;;;;;2.13;1.15;;;;;;;10.36;100.00;98509.22;15292893;19;20033;-73
2024/02/15 21:56:31;;;;;;;2.38;1.05;;;;;;;10.32;100.00;98489.84;15297056;19;20010;-73
2024/02/15 22:01:56;;;;;;;2.25;0.93;;;;;;;10.25;100.00;98494.16;15287331;19;20026;-74
2024/02/15 22:07:28;;;;;;;1.80;0.90;;;;;;;10.20;100.00;98496.50;15288017;19;20010;-73
2024/02/15 22:12:56;;;;;;;1.92;0.90;;;;;;;10.15;100.00;98490.72;15295493;19;20015;-74
2024/02/15 22:18:22;;;;;;;2.42;1.10;;;;;;;10.16;100.00;98497.81;15296652;19;20018;-74
2024/02/15 22:23:47;;;;;;;2.15;1.20;;;;;;;10.16;100.00;98485.22;15288425;19;20017;-73
2024/02/15 22:29:14;;;;;;;2.25;1.15;;;;;;;10.10;100.00;98477.75;15294222;19;20018;-74
2024/02/15 22:34:39;;;;;;;1.90;1.10;;;;;;;10.07;100.00;98463.75;15292713;19;20014;-74
2024/02/15 22:40:03;;;;;;;3.20;1.10;;;;;;;10.03;100.00;98460.53;15294404;19;20346;-74
2024/02/15 22:45:31;;;;;;;1.67;1.00;;;;;;;10.00;100.00;98460.84;15289849;19;20357;-74
2024/02/15 22:51:02;;;;;;;2.33;1.08;;;;;;;9.97;100.00;98450.38;15293146;19;20025;-73
2024/02/15 22:56:28;;;;;;;3.50;1.30;;;;;;;9.95;100.00;98449.69;15287704;19;20010;-74
2024/02/15 23:01:59;;;;;;;2.28;1.10;;;;;;;9.93;100.00;98440.94;15289035;19;20266;-74
2024/02/15 23:07:31;;;;;;;2.03;1.10;;;;;;;9.97;100.00;98442.31;15291071;19;20025;-74
2024/02/15 23:12:56;;;;;;;2.67;1.23;;;;;;;9.99;100.00;98437.63;15291772;19;20441;-74
2024/02/15 23:18:23;;;;;;;3.28;1.30;;;;;;;10.05;100.00;98434.31;15292148;19;20011;-74
2024/02/15 23:23:48;;;;;;;1.92;1.20;;;;;;;10.09;100.00;98414.13;15289918;19;20010;-74
2024/02/15 23:29:15;;;;;;;2.53;1.42;;;;;;;10.09;100.00;98416.81;15283987;19;20406;-74
2024/02/15 23:34:46;;;;;;;3.92;1.40;;;;;;;10.10;100.00;98410.44;15286789;19;20029;-74
2024/02/15 23:40:24;;;;;;;3.17;1.40;;;;;;;10.09;100.00;98407.91;15291792;19;20035;-74
2024/02/15 23:45:50;;;;;;;3.55;1.27;;;;;;;10.06;100.00;98414.44;15286759;19;20015;-74
2024/02/15 23:51:18;;;;;;;2.25;1.30;;;;;;;10.08;100.00;98423.22;15289626;19;20074;-73
2024/02/15 23:56:43;;;;;;;4.05;1.45;;;;;;;10.11;100.00;98422.91;15292293;19;20036;-73
